createdAt,value
2018-09-10T00:02:01.536Z,44.90
2018-09-10T00:04:28.700Z,44.90
2018-09-10T00:06:54.884Z,44.90
2018-09-10T00:09:21.050Z,44.70
2018-09-10T00:11:47.336Z,44.60
2018-09-10T00:14:13.564Z,44.50
2018-09-10T00:16:39.788Z,44.90
2018-09-10T00:19:05.948Z,44.70
2018-09-10T00:21:32.107Z,44.30
2018-09-10T00:23:58.268Z,44.60
2018-09-10T00:26:24.594Z,44.30
2018-09-10T00:28:50.931Z,44.50
2018-09-10T00:31:17.159Z,44.60
2018-09-10T00:33:43.383Z,44.50
2018-09-10T00:36:09.661Z,44.30
2018-09-10T00:38:36.045Z,44.10
2018-09-10T00:41:02.267Z,44.00
2018-09-10T00:43:28.501Z,44.10
2018-09-10T00:45:54.739Z,44.20
2018-09-10T00:48:20.973Z,44.00
2018-09-10T00:50:47.131Z,43.90
2018-09-10T00:53:13.407Z,44.10
2018-09-10T00:55:39.637Z,44.20
2018-09-10T00:58:05.862Z,44.20
2018-09-10T01:00:32.091Z,44.20
2018-09-10T01:02:58.313Z,44.10
2018-09-10T01:05:24.484Z,44.20
2018-09-10T01:07:50.764Z,44.00
2018-09-10T01:10:17.115Z,44.00
2018-09-10T01:12:43.370Z,43.90
2018-09-10T01:15:09.697Z,43.90
2018-09-10T01:17:35.937Z,43.90
2018-09-10T01:20:02.118Z,43.80
2018-09-10T01:22:28.347Z,44.10
2018-09-10T01:24:54.617Z,44.10
2018-09-10T01:27:20.799Z,43.80
2018-09-10T01:29:46.963Z,43.90
2018-09-10T01:32:13.303Z,43.90
2018-09-10T01:34:39.684Z,43.70
2018-09-10T01:37:05.855Z,43.80
2018-09-10T01:39:32.160Z,43.80
2018-09-10T01:41:58.316Z,43.90
2018-09-10T01:44:24.504Z,43.70
2018-09-10T01:46:50.891Z,43.60
2018-09-10T01:49:17.920Z,43.60
2018-09-10T01:51:44.093Z,43.60
2018-09-10T01:54:10.320Z,43.70
2018-09-10T01:56:36.556Z,44.00
2018-09-10T01:59:02.791Z,43.60
2018-09-10T02:01:28.995Z,43.50
2018-09-10T02:03:55.241Z,43.40
2018-09-10T02:06:21.464Z,43.70
2018-09-10T02:08:47.686Z,44.00
2018-09-10T02:11:13.915Z,44.10
2018-09-10T02:13:40.111Z,44.10
2018-09-10T02:16:07.192Z,44.00
2018-09-10T02:18:33.416Z,43.90
2018-09-10T02:20:59.647Z,43.70
2018-09-10T02:23:25.897Z,44.10
2018-09-10T02:25:52.295Z,44.00
2018-09-10T02:28:18.560Z,43.80
2018-09-10T02:30:44.764Z,43.80
2018-09-10T02:33:10.985Z,44.00
2018-09-10T02:35:37.261Z,44.00
2018-09-10T02:38:03.464Z,43.80
2018-09-10T02:40:29.622Z,43.80
2018-09-10T02:42:55.891Z,43.60
2018-09-10T02:45:22.128Z,43.60
2018-09-10T02:47:48.302Z,44.00
2018-09-10T02:50:14.583Z,44.10
2018-09-10T02:52:40.810Z,44.00
2018-09-10T02:55:06.987Z,43.70
2018-09-10T02:57:33.355Z,43.80
2018-09-10T02:59:59.687Z,43.80
2018-09-10T03:02:25.935Z,43.90
2018-09-10T03:04:52.149Z,43.90
2018-09-10T03:07:18.323Z,43.80
2018-09-10T03:09:44.649Z,43.90
2018-09-10T03:12:11.031Z,43.80
2018-09-10T03:14:37.260Z,43.70
2018-09-10T03:17:03.558Z,43.40
2018-09-10T03:19:29.928Z,43.80
2018-09-10T03:21:56.144Z,43.70
2018-09-10T03:24:22.380Z,43.50
2018-09-10T03:26:48.595Z,43.40
2018-09-10T03:29:14.837Z,43.70
2018-09-10T03:31:41.052Z,43.50
2018-09-10T03:34:07.275Z,43.50
2018-09-10T03:36:33.436Z,43.70
2018-09-10T03:38:59.728Z,43.60
2018-09-10T03:41:25.962Z,43.90
2018-09-10T03:43:52.191Z,43.70
2018-09-10T03:46:18.419Z,43.60
2018-09-10T03:48:44.599Z,43.50
2018-09-10T03:51:10.877Z,43.60
2018-09-10T03:53:37.099Z,43.60
2018-09-10T03:56:03.333Z,43.60
2018-09-10T03:58:29.509Z,43.60
2018-09-10T04:00:55.827Z,43.80
2018-09-10T04:03:22.009Z,43.80
2018-09-10T04:05:48.276Z,44.00
2018-09-10T04:08:14.504Z,44.00
2018-09-10T04:10:40.689Z,43.70
2018-09-10T04:13:06.917Z,43.70
2018-09-10T04:15:33.184Z,43.80
2018-09-10T04:17:59.432Z,43.60
2018-09-10T04:20:25.609Z,43.60
2018-09-10T04:22:51.767Z,43.90
2018-09-10T04:25:18.048Z,43.70
2018-09-10T04:27:44.289Z,43.90
2018-09-10T04:30:10.531Z,44.20
2018-09-10T04:32:36.741Z,43.60
2018-09-10T04:35:02.975Z,43.80
2018-09-10T04:37:29.397Z,43.80
2018-09-10T04:39:55.620Z,43.70
2018-09-10T04:42:21.891Z,43.70
2018-09-10T04:44:48.287Z,43.80
2018-09-10T04:47:14.517Z,44.30
2018-09-10T04:49:40.756Z,43.60
2018-09-10T04:52:07.172Z,43.70
2018-09-10T04:54:33.440Z,44.30
2018-09-10T04:56:59.650Z,43.70
2018-09-10T04:59:25.852Z,43.70
2018-09-10T05:01:52.075Z,43.90
2018-09-10T05:04:18.353Z,43.80
2018-09-10T05:06:45.559Z,44.00
2018-09-10T05:09:11.791Z,43.90
2018-09-10T05:11:37.950Z,44.00
2018-09-10T05:14:05.069Z,43.80
2018-09-10T05:16:31.239Z,43.80
2018-09-10T05:18:57.564Z,44.20
2018-09-10T05:21:23.744Z,43.60
2018-09-10T05:23:49.971Z,43.60
2018-09-10T05:26:16.136Z,43.50
2018-09-10T05:28:42.331Z,44.00
2018-09-10T05:31:08.652Z,43.70
2018-09-10T05:33:34.817Z,43.70
2018-09-10T05:36:01.007Z,43.50
2018-09-10T05:38:27.336Z,43.70
2018-09-10T05:40:53.559Z,43.90
2018-09-10T05:43:19.783Z,43.50
2018-09-10T05:45:46.056Z,43.40
2018-09-10T05:48:12.243Z,43.50
2018-09-10T05:50:38.473Z,43.90
2018-09-10T05:53:04.722Z,43.50
2018-09-10T05:55:31.123Z,43.70
2018-09-10T05:57:57.667Z,43.70
2018-09-10T06:00:24.000Z,43.80
2018-09-10T06:02:50.231Z,43.80
2018-09-10T06:05:16.456Z,43.60
2018-09-10T06:07:42.681Z,43.50
2018-09-10T06:10:08.910Z,43.70
2018-09-10T06:12:35.072Z,44.00
2018-09-10T06:15:01.365Z,43.80
2018-09-10T06:17:27.593Z,44.00
2018-09-10T06:19:53.820Z,44.20
2018-09-10T06:22:20.090Z,44.10
2018-09-10T06:24:46.266Z,44.20
2018-09-10T06:27:13.417Z,44.00
2018-09-10T06:29:39.742Z,44.00
2018-09-10T06:32:05.978Z,43.50
2018-09-10T06:34:32.261Z,43.90
2018-09-10T06:36:58.681Z,44.00
2018-09-10T06:39:25.070Z,43.90
2018-09-10T06:41:51.499Z,44.00
2018-09-10T06:44:17.772Z,44.10
2018-09-10T06:46:43.957Z,44.10
2018-09-10T06:49:14.276Z,43.90
2018-09-10T06:51:40.552Z,44.40
2018-09-10T06:54:06.733Z,44.50
2018-09-10T06:56:32.955Z,44.10
2018-09-10T06:58:59.184Z,44.40
2018-09-10T07:01:25.413Z,44.00
2018-09-10T07:03:52.468Z,44.60
2018-09-10T07:06:18.639Z,44.60
2018-09-10T07:08:50.244Z,44.00
2018-09-10T07:11:16.473Z,44.10
2018-09-10T07:13:42.696Z,44.30
2018-09-10T07:16:08.860Z,44.10
2018-09-10T07:18:35.170Z,44.20
2018-09-10T07:21:01.394Z,44.60
2018-09-10T07:23:27.603Z,44.60
2018-09-10T07:25:53.858Z,44.80
2018-09-10T07:28:20.907Z,44.60
2018-09-10T07:30:47.107Z,44.80
2018-09-10T07:33:13.335Z,45.20
2018-09-10T07:35:39.560Z,44.70
2018-09-10T07:38:05.798Z,45.10
2018-09-10T07:40:32.025Z,45.00
2018-09-10T07:42:58.265Z,45.00
2018-09-10T07:45:24.425Z,45.30
2018-09-10T07:47:50.705Z,45.20
2018-09-10T07:50:17.032Z,45.30
2018-09-10T07:52:43.188Z,45.00
2018-09-10T07:55:09.404Z,45.20
2018-09-10T07:57:35.618Z,45.40
2018-09-10T08:00:01.834Z,45.30
2018-09-10T08:02:28.095Z,44.90
2018-09-10T08:04:54.288Z,44.90
2018-09-10T08:07:20.580Z,45.20
2018-09-10T08:09:46.744Z,45.00
2018-09-10T08:12:12.969Z,44.60
2018-09-10T08:14:39.699Z,45.50
2018-09-10T08:17:05.861Z,45.00
2018-09-10T08:19:32.045Z,45.20
2018-09-10T08:21:59.111Z,45.60
2018-09-10T08:24:25.400Z,45.60
2018-09-10T08:26:51.763Z,45.40
2018-09-10T08:29:18.000Z,45.20
2018-09-10T08:31:44.230Z,45.20
2018-09-10T08:34:10.456Z,45.30
2018-09-10T08:36:36.700Z,45.30
2018-09-10T08:39:02.914Z,45.70
2018-09-10T08:41:29.131Z,46.80
2018-09-10T08:43:55.290Z,46.00
2018-09-10T08:46:22.403Z,45.90
2018-09-10T08:48:48.641Z,45.90
2018-09-10T08:51:14.864Z,46.10
2018-09-10T08:53:41.099Z,45.80
2018-09-10T08:56:07.344Z,46.00
2018-09-10T08:58:33.805Z,45.90
2018-09-10T09:01:00.275Z,46.00
2018-09-10T09:03:26.436Z,45.70
2018-09-10T09:05:52.675Z,46.00
2018-09-10T09:08:19.904Z,45.30
2018-09-10T09:10:46.114Z,45.30
2018-09-10T09:13:12.340Z,45.10
2018-09-10T09:15:38.491Z,45.30
2018-09-10T09:18:04.700Z,45.30
2018-09-10T09:20:31.037Z,45.00
2018-09-10T09:22:57.243Z,45.10
2018-09-10T09:25:23.472Z,44.80
2018-09-10T09:27:49.656Z,45.10
2018-09-10T09:30:16.068Z,45.30
2018-09-10T09:32:42.370Z,45.30
2018-09-10T09:35:08.592Z,45.80
2018-09-10T09:37:34.821Z,45.30
2018-09-10T09:40:00.981Z,45.70
2018-09-10T09:42:27.348Z,45.30
2018-09-10T09:44:53.699Z,45.20
2018-09-10T09:47:19.940Z,45.30
2018-09-10T09:49:46.164Z,45.10
2018-09-10T09:52:12.388Z,45.30
2018-09-10T09:54:38.628Z,45.20
2018-09-10T09:57:04.843Z,45.20
2018-09-10T09:59:31.157Z,45.20
2018-09-10T10:01:57.505Z,45.60
2018-09-10T10:04:23.712Z,45.20
2018-09-10T10:06:50.206Z,45.50
2018-09-10T10:09:16.432Z,45.80
2018-09-10T10:11:42.785Z,46.10
2018-09-10T10:14:08.963Z,45.40
2018-09-10T10:16:35.295Z,45.40
2018-09-10T10:19:01.507Z,45.40
2018-09-10T10:21:27.735Z,45.40
2018-09-10T10:23:53.967Z,45.40
2018-09-10T10:26:20.196Z,45.50
2018-09-10T10:28:46.419Z,45.30
2018-09-10T10:31:12.649Z,45.60
2018-09-10T10:33:38.843Z,45.50
2018-09-10T10:36:05.924Z,45.40
2018-09-10T10:38:32.146Z,45.30
2018-09-10T10:40:58.373Z,45.50
2018-09-10T10:43:24.606Z,45.60
2018-09-10T10:45:50.828Z,45.50
2018-09-10T10:48:17.056Z,45.80
2018-09-10T10:50:43.283Z,45.30
2018-09-10T10:53:09.514Z,45.60
2018-09-10T10:55:35.736Z,46.60
2018-09-10T10:58:01.964Z,45.50
2018-09-10T11:00:28.232Z,45.90
2018-09-10T11:02:54.416Z,45.80
2018-09-10T11:05:20.684Z,45.60
2018-09-10T11:07:46.867Z,46.20
2018-09-10T11:10:13.141Z,45.70
2018-09-10T11:12:39.319Z,45.70
2018-09-10T11:15:05.556Z,45.80
2018-09-10T11:17:31.853Z,45.70
2018-09-10T11:19:58.216Z,45.70
2018-09-10T11:22:24.487Z,45.70
2018-09-10T11:24:50.868Z,45.60
2018-09-10T11:27:17.099Z,45.60
2018-09-10T11:29:43.334Z,45.70
2018-09-10T11:32:09.564Z,45.90
2018-09-10T11:34:35.841Z,45.80
2018-09-10T11:37:02.216Z,45.50
2018-09-10T11:39:28.385Z,45.50
2018-09-10T11:41:54.672Z,45.60
2018-09-10T11:44:20.843Z,45.60
2018-09-10T11:46:47.132Z,45.60
2018-09-10T11:49:13.354Z,45.60
2018-09-10T11:51:39.588Z,45.50
2018-09-10T11:54:08.469Z,45.20
2018-09-10T11:56:34.715Z,45.30
2018-09-10T11:59:00.885Z,45.40
2018-09-10T12:01:27.171Z,45.60
2018-09-10T12:03:53.367Z,45.50
2018-09-10T12:06:20.422Z,45.50
2018-09-10T12:08:46.664Z,45.40
2018-09-10T12:11:12.886Z,45.30
2018-09-10T12:13:39.206Z,45.60
2018-09-10T12:16:06.226Z,45.90
2018-09-10T12:18:32.577Z,45.90
2018-09-10T12:20:58.734Z,45.90
2018-09-10T12:23:25.037Z,45.60
2018-09-10T12:25:51.225Z,45.80
2018-09-10T12:28:17.492Z,45.80
2018-09-10T12:30:43.727Z,45.90
2018-09-10T12:33:09.949Z,45.70
2018-09-10T12:35:36.175Z,45.60
2018-09-10T12:38:02.407Z,45.80
2018-09-10T12:40:28.680Z,46.00
2018-09-10T12:42:54.929Z,45.70
2018-09-10T12:45:21.183Z,45.80
2018-09-10T12:47:47.523Z,45.80
2018-09-10T12:50:13.681Z,45.80
2018-09-10T12:52:39.844Z,45.90
2018-09-10T12:55:06.052Z,45.60
2018-09-10T12:57:32.224Z,45.90
2018-09-10T12:59:58.453Z,46.10
2018-09-10T13:02:24.696Z,46.00
2018-09-10T13:04:50.988Z,45.90
2018-09-10T13:07:17.920Z,45.60
2018-09-10T13:09:44.908Z,46.40
2018-09-10T13:12:11.223Z,45.70
2018-09-10T13:14:37.464Z,45.90
2018-09-10T13:17:03.699Z,46.00
2018-09-10T13:19:29.910Z,45.80
2018-09-10T13:21:56.086Z,45.70
2018-09-10T13:24:22.687Z,45.80
2018-09-10T13:26:48.897Z,45.80
2018-09-10T13:29:15.230Z,45.70
2018-09-10T13:31:41.464Z,45.70
2018-09-10T13:34:07.629Z,45.40
2018-09-10T13:36:38.661Z,45.40
2018-09-10T13:39:05.067Z,45.40
2018-09-10T13:41:31.301Z,45.60
2018-09-10T13:43:57.536Z,45.60
2018-09-10T13:46:23.739Z,45.70
2018-09-10T13:48:49.957Z,46.00
2018-09-10T13:51:16.222Z,45.70
2018-09-10T13:53:42.422Z,45.70
2018-09-10T13:56:08.649Z,45.80
2018-09-10T13:58:38.570Z,45.50
2018-09-10T14:01:04.796Z,45.60
2018-09-10T14:03:31.062Z,45.70
2018-09-10T14:05:57.231Z,45.70
2018-09-10T14:08:23.463Z,45.60
2018-09-10T14:10:50.554Z,45.80
2018-09-10T14:13:16.946Z,45.50
2018-09-10T14:15:43.112Z,45.70
2018-09-10T14:18:09.502Z,45.80
2018-09-10T14:20:35.881Z,46.00
2018-09-10T14:23:02.059Z,45.90
2018-09-10T14:25:28.343Z,46.00
2018-09-10T14:27:54.530Z,45.80
2018-09-10T14:30:20.739Z,45.80
2018-09-10T14:32:46.973Z,45.80
2018-09-10T14:35:13.400Z,45.80
2018-09-10T14:37:39.556Z,45.60
2018-09-10T14:40:05.856Z,45.60
2018-09-10T14:42:32.282Z,45.60
2018-09-10T14:44:58.513Z,45.50
2018-09-10T14:47:24.746Z,45.70
2018-09-10T14:49:50.963Z,45.70
2018-09-10T14:52:17.198Z,45.60
2018-09-10T14:54:43.429Z,45.70
2018-09-10T14:57:09.681Z,45.80
2018-09-10T14:59:35.898Z,45.90
2018-09-10T15:02:02.113Z,45.80
2018-09-10T15:04:28.335Z,45.80
2018-09-10T15:06:55.588Z,45.80
2018-09-10T15:09:21.816Z,46.20
2018-09-10T15:11:48.045Z,45.70
2018-09-10T15:14:14.371Z,45.60
2018-09-10T15:16:40.701Z,45.30
2018-09-10T15:19:07.072Z,45.60
2018-09-10T15:21:33.449Z,45.60
2018-09-10T15:23:59.790Z,45.70
2018-09-10T15:26:26.021Z,45.60
2018-09-10T15:28:52.488Z,45.80
2018-09-10T15:31:18.704Z,46.00
2018-09-10T15:33:44.904Z,45.70
2018-09-10T15:36:11.139Z,45.70
2018-09-10T15:38:37.324Z,45.80
2018-09-10T15:41:03.586Z,45.70
2018-09-10T15:43:29.813Z,45.90
2018-09-10T15:45:55.972Z,45.70
2018-09-10T15:48:22.271Z,45.80
2018-09-10T15:50:48.500Z,45.90
2018-09-10T15:53:14.761Z,45.80
2018-09-10T15:55:41.154Z,46.00
2018-09-10T15:58:07.385Z,46.20
2018-09-10T16:00:33.621Z,46.10
2018-09-10T16:02:59.880Z,45.80
2018-09-10T16:05:26.071Z,45.70
2018-09-10T16:07:52.300Z,45.70
2018-09-10T16:10:18.638Z,45.80
2018-09-10T16:12:44.956Z,45.60
2018-09-10T16:15:11.185Z,45.70
2018-09-10T16:17:37.414Z,45.90
2018-09-10T16:20:03.686Z,46.10
2018-09-10T16:22:30.075Z,45.80
2018-09-10T16:24:56.304Z,45.80
2018-09-10T16:27:22.535Z,45.90
2018-09-10T16:29:48.812Z,46.10
2018-09-10T16:32:15.087Z,46.20
2018-09-10T16:34:41.412Z,46.20
2018-09-10T16:37:08.664Z,46.20
2018-09-10T16:39:34.887Z,46.30
2018-09-10T16:42:01.122Z,46.20
2018-09-10T16:44:27.364Z,46.20
2018-09-10T16:46:53.579Z,46.20
2018-09-10T16:49:19.808Z,46.20
2018-09-10T16:51:46.029Z,46.30
2018-09-10T16:54:12.288Z,46.30
2018-09-10T16:56:39.499Z,46.30
2018-09-10T16:59:05.735Z,46.20
2018-09-10T17:01:31.907Z,46.20
2018-09-10T17:03:58.237Z,46.30
2018-09-10T17:06:24.421Z,46.40
2018-09-10T17:08:50.643Z,46.40
2018-09-10T17:11:16.867Z,46.30
2018-09-10T17:13:43.124Z,46.50
2018-09-10T17:16:09.327Z,46.10
2018-09-10T17:18:35.495Z,46.50
2018-09-10T17:21:01.712Z,46.30
2018-09-10T17:23:28.211Z,46.50
2018-09-10T17:25:54.734Z,46.60
2018-09-10T17:28:21.084Z,46.60
2018-09-10T17:30:47.265Z,46.50
2018-09-10T17:33:13.535Z,46.50
2018-09-10T17:35:39.764Z,46.40
2018-09-10T17:38:06.023Z,46.70
2018-09-10T17:40:32.216Z,46.60
2018-09-10T17:42:58.445Z,46.70
2018-09-10T17:45:24.667Z,46.70
2018-09-10T17:47:51.024Z,46.60
2018-09-10T17:50:17.330Z,46.60
2018-09-10T17:52:43.488Z,46.70
2018-09-10T17:55:09.784Z,46.80
2018-09-10T17:57:35.968Z,46.80
2018-09-10T18:00:02.229Z,46.70
2018-09-10T18:02:28.522Z,46.80
2018-09-10T18:04:54.744Z,46.70
2018-09-10T18:07:20.963Z,46.90
2018-09-10T18:09:47.137Z,47.00
2018-09-10T18:12:13.389Z,46.90
2018-09-10T18:14:39.602Z,47.10
2018-09-10T18:17:05.855Z,46.90
2018-09-10T18:19:32.056Z,47.10
2018-09-10T18:21:58.257Z,47.20
2018-09-10T18:24:25.238Z,47.30
2018-09-10T18:26:51.757Z,47.30
2018-09-10T18:29:18.197Z,47.40
2018-09-10T18:31:44.419Z,47.50
2018-09-10T18:34:10.673Z,47.50
2018-09-10T18:36:37.071Z,47.50
2018-09-10T18:39:03.304Z,47.50
2018-09-10T18:41:29.527Z,47.60
2018-09-10T18:43:55.762Z,47.60
2018-09-10T18:46:21.994Z,47.60
2018-09-10T18:48:48.250Z,47.60
2018-09-10T18:51:15.344Z,47.70
2018-09-10T18:53:41.509Z,47.80
2018-09-10T18:56:07.712Z,47.70
2018-09-10T18:58:34.000Z,47.60
2018-09-10T19:01:00.621Z,47.80
2018-09-10T19:03:26.810Z,47.70
2018-09-10T19:05:53.018Z,48.60
2018-09-10T19:08:20.085Z,48.10
2018-09-10T19:10:46.308Z,48.10
2018-09-10T19:13:12.536Z,48.00
2018-09-10T19:15:38.772Z,48.10
2018-09-10T19:18:05.061Z,48.20
2018-09-10T19:20:31.432Z,48.20
2018-09-10T19:22:57.657Z,48.40
2018-09-10T19:25:23.936Z,48.60
2018-09-10T19:27:50.107Z,48.50
2018-09-10T19:30:16.439Z,48.40
2018-09-10T19:32:42.802Z,49.10
2018-09-10T19:35:09.006Z,48.60
2018-09-10T19:37:35.300Z,48.70
2018-09-10T19:40:01.669Z,48.90
2018-09-10T19:42:27.886Z,48.60
2018-09-10T19:44:54.139Z,48.50
2018-09-10T19:47:20.745Z,48.90
2018-09-10T19:49:46.895Z,48.80
2018-09-10T19:52:13.287Z,48.50
2018-09-10T19:54:39.668Z,48.40
2018-09-10T19:57:05.973Z,48.20
2018-09-10T19:59:32.391Z,48.70
2018-09-10T20:01:58.769Z,48.70
2018-09-10T20:04:24.951Z,48.30
2018-09-10T20:06:51.125Z,48.70
2018-09-10T20:09:17.423Z,48.40
2018-09-10T20:11:43.640Z,48.50
2018-09-10T20:14:09.863Z,48.70
2018-09-10T20:16:36.087Z,48.60
2018-09-10T20:19:02.324Z,48.20
2018-09-10T20:21:28.543Z,48.60
2018-09-10T20:23:54.780Z,48.00
2018-09-10T20:26:21.008Z,48.30
2018-09-10T20:28:47.228Z,48.50
2018-09-10T20:31:13.502Z,48.40
2018-09-10T20:33:39.731Z,48.50
2018-09-10T20:36:06.115Z,48.50
2018-09-10T20:38:32.348Z,48.60
2018-09-10T20:40:58.506Z,48.40
2018-09-10T20:43:24.797Z,48.40
2018-09-10T20:45:51.128Z,48.50
2018-09-10T20:48:17.468Z,48.20
2018-09-10T20:50:43.751Z,48.40
2018-09-10T20:53:09.927Z,48.50
2018-09-10T20:55:36.146Z,48.20
2018-09-10T20:58:02.364Z,48.30
2018-09-10T21:00:28.602Z,48.40
2018-09-10T21:02:54.816Z,48.30
2018-09-10T21:05:21.061Z,47.70
2018-09-10T21:07:47.273Z,48.10
2018-09-10T21:10:13.505Z,48.10
2018-09-10T21:12:39.724Z,48.30
2018-09-10T21:15:05.954Z,48.10
2018-09-10T21:17:32.176Z,48.20
2018-09-10T21:19:58.350Z,48.40
2018-09-10T21:22:25.452Z,48.30
2018-09-10T21:24:51.681Z,48.20
2018-09-10T21:27:17.923Z,48.30
2018-09-10T21:29:44.103Z,48.10
2018-09-10T21:32:10.408Z,48.10
2018-09-10T21:34:38.889Z,48.10
2018-09-10T21:37:05.289Z,48.20
2018-09-10T21:39:31.716Z,48.40
2018-09-10T21:41:57.944Z,48.30
2018-09-10T21:44:24.236Z,48.00
2018-09-10T21:46:50.448Z,48.20
2018-09-10T21:49:16.827Z,48.30
2018-09-10T21:51:43.055Z,48.30
2018-09-10T21:54:09.291Z,48.30
2018-09-10T21:56:35.504Z,48.10
2018-09-10T21:59:01.720Z,47.90
2018-09-10T22:01:28.825Z,48.10
2018-09-10T22:03:55.016Z,48.10
2018-09-10T22:06:21.238Z,48.10
2018-09-10T22:08:47.467Z,48.30
2018-09-10T22:11:13.695Z,48.10
2018-09-10T22:13:39.849Z,48.20
2018-09-10T22:16:06.059Z,48.10
2018-09-10T22:18:32.888Z,48.20
2018-09-10T22:20:59.118Z,48.20
2018-09-10T22:23:25.440Z,48.00
2018-09-10T22:25:51.955Z,48.10
2018-09-10T22:28:18.369Z,48.10
2018-09-10T22:30:44.531Z,48.00
2018-09-10T22:33:10.804Z,48.40
2018-09-10T22:35:37.049Z,48.10
2018-09-10T22:38:03.243Z,48.10
2018-09-10T22:40:29.484Z,48.00
2018-09-10T22:42:55.671Z,48.00
2018-09-10T22:45:21.892Z,48.00
2018-09-10T22:47:48.139Z,48.10
2018-09-10T22:50:14.350Z,48.10
2018-09-10T22:52:40.586Z,48.10
2018-09-10T22:55:06.813Z,48.10
2018-09-10T22:57:33.037Z,48.10
2018-09-10T22:59:59.269Z,48.00
2018-09-10T23:02:25.479Z,48.10
2018-09-10T23:04:51.715Z,48.00
2018-09-10T23:07:18.002Z,47.90
2018-09-10T23:09:44.396Z,48.20
2018-09-10T23:12:10.612Z,48.20
2018-09-10T23:14:36.771Z,47.90
2018-09-10T23:17:03.079Z,48.00
2018-09-10T23:19:29.293Z,48.10
2018-09-10T23:21:55.457Z,47.90
2018-09-10T23:24:21.803Z,48.10
2018-09-10T23:26:48.016Z,48.20
2018-09-10T23:29:14.196Z,48.10
2018-09-10T23:31:40.423Z,48.10
2018-09-10T23:34:06.649Z,48.00
2018-09-10T23:36:32.830Z,47.90
2018-09-10T23:38:59.173Z,48.00
2018-09-10T23:41:25.535Z,48.20
2018-09-10T23:43:51.765Z,48.00
2018-09-10T23:46:18.052Z,47.70
2018-09-10T23:48:44.217Z,48.30
2018-09-10T23:51:10.395Z,48.00
2018-09-10T23:53:36.725Z,48.10
2018-09-10T23:56:02.895Z,47.90
2018-09-10T23:58:29.124Z,47.90
